createdAt,value
2018-10-06T00:00:29.109Z,24.30
2018-10-06T00:02:58.905Z,25.87
2018-10-06T00:05:28.682Z,25.07
2018-10-06T00:07:58.377Z,23.03
2018-10-06T00:10:28.771Z,24.23
2018-10-06T00:12:59.911Z,23.30
2018-10-06T00:15:34.515Z,24.10
2018-10-06T00:18:04.107Z,25.80
2018-10-06T00:20:33.638Z,27.30
2018-10-06T00:23:03.459Z,26.03
2018-10-06T00:25:33.116Z,25.67
2018-10-06T00:28:35.208Z,26.37
2018-10-06T00:37:45.729Z,28.43
2018-10-06T00:40:17.981Z,29.83
2018-10-06T00:42:47.473Z,28.37
2018-10-06T00:45:19.957Z,29.87
2018-10-06T00:47:49.798Z,31.80
2018-10-06T00:50:21.922Z,33.20
2018-10-06T00:52:51.922Z,31.97
2018-10-06T00:55:21.397Z,32.67
2018-10-06T01:03:48.623Z,30.70
2018-10-06T01:06:24.581Z,29.23
2018-10-06T01:08:56.003Z,26.80
2018-10-06T01:11:25.503Z,27.67
2018-10-06T01:13:55.531Z,29.43
2018-10-06T01:16:24.952Z,31.50
2018-10-06T01:18:58.311Z,33.00
2018-10-06T01:21:28.405Z,30.93
2018-10-06T01:23:58.311Z,30.60
2018-10-06T01:26:30.599Z,29.03
2018-10-06T01:29:09.482Z,30.87
2018-10-06T01:31:40.494Z,32.30
2018-10-06T01:34:10.418Z,34.70
2018-10-06T01:36:40.999Z,33.97
2018-10-06T01:39:15.205Z,33.47
2018-10-06T01:44:52.916Z,33.87
2018-10-06T01:50:16.882Z,34.37
2018-10-06T01:52:46.442Z,36.43
2018-10-06T01:55:18.464Z,33.63
2018-10-06T01:57:47.951Z,32.37
2018-10-06T02:00:17.606Z,31.87
2018-10-06T02:02:47.657Z,30.30
2018-10-06T02:05:19.512Z,30.00
2018-10-06T02:07:49.118Z,30.70
2018-10-06T02:10:21.394Z,30.70
2018-10-06T02:12:50.957Z,31.67
2018-10-06T02:15:21.321Z,31.60
2018-10-06T02:17:50.899Z,29.27
2018-10-06T02:20:22.394Z,28.93
2018-10-06T02:22:51.839Z,31.73
2018-10-06T02:25:21.302Z,30.67
2018-10-06T02:27:51.146Z,32.50
2018-10-06T02:30:23.215Z,31.83
2018-10-06T02:32:52.714Z,32.60
2018-10-06T02:35:24.599Z,31.73
2018-10-06T02:37:54.153Z,31.83
2018-10-06T02:40:24.026Z,32.30
2018-10-06T02:46:06.568Z,29.00
2018-10-06T02:52:01.086Z,29.40
2018-10-06T02:54:32.275Z,28.23
2018-10-06T02:57:01.906Z,25.47
2018-10-06T02:59:35.277Z,29.43
2018-10-06T03:05:30.538Z,302.87
2018-10-06T03:08:03.803Z,29.40
2018-10-06T03:10:33.425Z,30.17
2018-10-06T03:13:03.791Z,30.33
2018-10-06T03:15:33.286Z,28.90
2018-10-06T03:21:11.461Z,25.87
2018-10-06T03:23:42.887Z,25.97
2018-10-06T03:26:12.391Z,24.40
2018-10-06T03:28:42.161Z,22.40
2018-10-06T03:35:35.399Z,24.67
2018-10-06T03:38:05.211Z,22.77
2018-10-06T03:40:34.800Z,22.47
2018-10-06T03:43:04.240Z,22.17
2018-10-06T03:45:33.923Z,21.73
2018-10-06T03:48:03.851Z,22.10
2018-10-06T03:50:38.838Z,23.40
2018-10-06T03:56:52.110Z,22.00
2018-10-06T03:59:48.758Z,22.80
2018-10-06T04:02:18.272Z,24.47
2018-10-06T04:04:47.662Z,23.77
2018-10-06T04:07:17.465Z,23.43
2018-10-06T04:09:47.010Z,23.57
2018-10-06T04:12:16.605Z,21.63
2018-10-06T04:14:47.930Z,21.67
2018-10-06T04:17:17.754Z,20.67
2018-10-06T04:23:10.061Z,1588.73
2018-10-06T04:25:40.778Z,1012.93
2018-10-06T04:28:45.343Z,985.27
2018-10-06T04:34:30.852Z,29.37
2018-10-06T04:37:30.856Z,29.33
2018-10-06T04:40:02.375Z,28.23
2018-10-06T04:42:34.253Z,28.77
2018-10-06T04:45:05.902Z,28.80
2018-10-06T04:48:20.543Z,29.00
2018-10-06T04:50:50.820Z,26.00
2018-10-06T04:56:55.004Z,22.57
2018-10-06T04:59:30.747Z,21.83
2018-10-06T05:02:19.764Z,23.47
2018-10-06T05:04:49.646Z,21.60
2018-10-06T05:07:19.317Z,24.17
2018-10-06T05:09:48.730Z,26.03
2018-10-06T05:12:18.350Z,25.67
2018-10-06T05:14:47.732Z,24.50
2018-10-06T05:17:17.124Z,24.37
2018-10-06T05:19:46.607Z,23.57
2018-10-06T05:22:16.070Z,25.17
2018-10-06T05:24:45.381Z,25.70
2018-10-06T05:27:15.202Z,27.67
2018-10-06T05:29:44.765Z,28.77
2018-10-06T05:32:17.164Z,27.33
2018-10-06T05:34:46.713Z,28.47
2018-10-06T05:37:16.213Z,27.97
2018-10-06T05:39:45.770Z,28.03
2018-10-06T05:42:15.197Z,25.03
2018-10-06T05:44:44.612Z,27.30
2018-10-06T05:47:14.162Z,27.03
2018-10-06T05:49:43.743Z,27.67
2018-10-06T05:52:13.508Z,28.93
2018-10-06T05:54:43.090Z,28.40
2018-10-06T05:57:14.902Z,30.10
2018-10-06T05:59:44.306Z,31.07
2018-10-06T06:02:13.912Z,30.20
2018-10-06T06:04:43.823Z,29.73
2018-10-06T06:07:13.418Z,30.57
2018-10-06T06:09:42.840Z,31.53
2018-10-06T06:12:12.481Z,32.17
2018-10-06T06:14:42.097Z,35.23
2018-10-06T06:17:12.028Z,34.27
2018-10-06T06:19:41.867Z,30.57
2018-10-06T06:22:11.334Z,30.00
2018-10-06T06:24:41.001Z,30.47
2018-10-06T06:27:10.368Z,27.10
2018-10-06T06:29:39.903Z,29.83
2018-10-06T06:32:11.387Z,30.70
2018-10-06T06:34:41.206Z,30.37
2018-10-06T06:37:10.652Z,23.57
2018-10-06T06:39:40.190Z,23.20
2018-10-06T06:42:09.800Z,14.97
2018-10-06T06:44:39.428Z,16.83
2018-10-06T06:47:09.237Z,1608.73
2018-10-06T06:49:38.679Z,18.53
2018-10-06T06:52:08.529Z,16.50
2018-10-06T06:54:38.011Z,24.00
2018-10-06T06:57:08.026Z,20.70
2018-10-06T06:59:37.457Z,20.97
2018-10-06T07:02:07.087Z,20.97
2018-10-06T07:04:46.660Z,23.67
2018-10-06T07:07:17.052Z,17.27
2018-10-06T07:09:46.645Z,17.83
2018-10-06T07:12:16.133Z,19.80
2018-10-06T07:14:46.719Z,143.20
2018-10-06T07:17:16.311Z,17.27
2018-10-06T07:19:45.896Z,24.33
2018-10-06T07:22:15.509Z,26.03
2018-10-06T07:24:45.042Z,25.63
2018-10-06T07:27:14.393Z,22.83
2018-10-06T07:29:43.929Z,21.70
2018-10-06T07:32:13.533Z,16.73
2018-10-06T07:34:43.652Z,20.57
2018-10-06T07:37:13.605Z,19.67
2018-10-06T07:46:13.679Z,16.80
2018-10-06T07:48:43.055Z,17.27
2018-10-06T07:51:12.928Z,19.30
2018-10-06T07:53:42.558Z,17.60
2018-10-06T07:56:12.306Z,20.53
2018-10-06T07:58:41.896Z,22.73
2018-10-06T08:01:11.528Z,20.10
2018-10-06T08:03:40.938Z,720.30
2018-10-06T08:06:10.261Z,528.57
2018-10-06T08:08:40.584Z,21.20
2018-10-06T08:21:21.040Z,18.17
2018-10-06T08:23:50.475Z,18.43
2018-10-06T08:26:20.311Z,19.43
2018-10-06T08:28:49.794Z,17.03
2018-10-06T08:31:19.291Z,17.93
2018-10-06T08:33:48.913Z,19.53
2018-10-06T08:36:18.572Z,18.13
2018-10-06T08:38:48.163Z,17.90
2018-10-06T08:41:20.045Z,17.00
2018-10-06T08:43:49.643Z,16.33
2018-10-06T08:46:19.218Z,15.57
2018-10-06T08:48:48.793Z,15.33
2018-10-06T08:51:18.469Z,15.53
2018-10-06T08:53:47.991Z,16.77
2018-10-06T08:56:17.480Z,17.40
2018-10-06T08:58:47.193Z,19.00
2018-10-06T09:01:16.552Z,20.17
2018-10-06T09:03:46.913Z,18.63
2018-10-06T09:06:17.315Z,18.53
2018-10-06T09:08:46.844Z,20.70
2018-10-06T09:11:17.664Z,19.47
2018-10-06T09:13:47.355Z,20.33
2018-10-06T09:16:17.813Z,18.83
2018-10-06T09:18:47.299Z,18.47
2018-10-06T09:21:16.812Z,18.80
2018-10-06T09:23:46.329Z,21.20
2018-10-06T09:26:15.854Z,20.27
2018-10-06T09:28:45.402Z,20.23
2018-10-06T09:31:15.030Z,17.90
2018-10-06T09:33:44.550Z,20.03
2018-10-06T09:36:14.064Z,20.07
2018-10-06T09:38:43.594Z,20.37
2018-10-06T09:41:12.996Z,21.50
2018-10-06T09:43:42.309Z,22.47
2018-10-06T09:46:11.824Z,23.07
2018-10-06T09:48:41.177Z,22.67
2018-10-06T09:51:11.371Z,22.77
2018-10-06T09:53:44.932Z,23.57
2018-10-06T09:56:14.730Z,23.37
2018-10-06T09:58:44.328Z,24.30
2018-10-06T10:01:18.898Z,22.37
2018-10-06T10:03:53.329Z,21.40
2018-10-06T10:06:23.767Z,20.87
2018-10-06T10:08:53.507Z,10.20
2018-10-06T10:11:27.815Z,19.57
2018-10-06T10:13:57.669Z,11.43
2018-10-06T10:16:27.136Z,11.97
2018-10-06T10:18:56.828Z,17.57
2018-10-06T10:21:27.070Z,18.03
2018-10-06T10:23:56.673Z,15.83
2018-10-06T10:26:25.993Z,20.27
2018-10-06T10:28:55.428Z,16.47
2018-10-06T10:31:24.997Z,14.73
2018-10-06T10:33:54.826Z,14.70
2018-10-06T10:36:24.351Z,12.93
2018-10-06T10:38:53.957Z,13.83
2018-10-06T10:41:23.469Z,14.70
2018-10-06T10:43:53.397Z,15.20
2018-10-06T10:46:23.258Z,15.00
2018-10-06T10:48:56.785Z,15.97
2018-10-06T10:51:26.360Z,16.90
2018-10-06T10:53:55.871Z,16.63
2018-10-06T10:56:26.682Z,21.83
2018-10-06T10:58:56.320Z,16.17
2018-10-06T11:01:25.717Z,18.87
2018-10-06T11:03:55.189Z,19.17
2018-10-06T11:06:24.889Z,17.40
2018-10-06T11:08:54.409Z,19.33
2018-10-06T11:11:23.986Z,17.77
2018-10-06T11:13:53.281Z,17.50
2018-10-06T11:16:22.704Z,17.40
2018-10-06T11:18:53.034Z,15.83
2018-10-06T11:21:30.743Z,15.80
2018-10-06T11:24:00.382Z,15.77
2018-10-06T11:26:29.891Z,15.70
2018-10-06T11:28:59.500Z,17.17
2018-10-06T11:31:29.134Z,16.93
2018-10-06T11:33:58.811Z,15.30
2018-10-06T11:36:28.338Z,13.00
2018-10-06T11:38:58.170Z,15.93
2018-10-06T11:41:27.598Z,18.53
2018-10-06T11:43:57.358Z,16.40
2018-10-06T11:46:28.706Z,15.80
2018-10-06T11:48:58.514Z,17.27
2018-10-06T11:51:42.037Z,17.73
2018-10-06T11:54:12.866Z,15.40
2018-10-06T11:56:43.366Z,13.23
2018-10-06T11:59:12.878Z,17.23
2018-10-06T12:01:42.251Z,17.33
2018-10-06T12:04:11.667Z,16.60
2018-10-06T12:06:41.282Z,17.77
2018-10-06T12:09:10.603Z,20.20
2018-10-06T12:11:40.517Z,20.90
2018-10-06T12:14:52.122Z,18.77
2018-10-06T12:17:40.171Z,16.83
2018-10-06T12:20:09.747Z,23.80
2018-10-06T12:22:39.278Z,23.30
2018-10-06T12:25:08.861Z,17.00
2018-10-06T12:27:38.309Z,19.10
2018-10-06T12:30:07.978Z,24.90
2018-10-06T12:32:37.434Z,21.40
2018-10-06T12:35:07.120Z,14.67
2018-10-06T12:37:36.654Z,16.87
2018-10-06T12:40:06.102Z,18.33
2018-10-06T12:42:35.768Z,51.03
2018-10-06T12:45:05.491Z,14.83
2018-10-06T12:47:35.046Z,18.83
2018-10-06T12:50:04.624Z,17.43
2018-10-06T12:52:34.037Z,18.63
2018-10-06T12:55:03.432Z,20.07
2018-10-06T12:57:33.098Z,14.87
2018-10-06T13:00:02.822Z,17.27
2018-10-06T13:02:33.018Z,16.87
2018-10-06T13:05:02.840Z,17.73
2018-10-06T13:07:32.776Z,22.13
2018-10-06T13:10:02.183Z,19.07
2018-10-06T13:12:31.801Z,542.03
2018-10-06T13:15:01.491Z,21.43
2018-10-06T13:17:31.066Z,30.83
2018-10-06T13:20:04.647Z,31.43
2018-10-06T13:22:34.665Z,16.70
2018-10-06T13:25:04.396Z,16.20
2018-10-06T13:27:33.957Z,16.07
2018-10-06T13:30:03.413Z,18.17
2018-10-06T13:32:33.175Z,21.87
2018-10-06T13:35:02.631Z,14.00
2018-10-06T13:37:32.164Z,15.80
2018-10-06T13:40:01.926Z,13.70
2018-10-06T13:42:35.620Z,9.90
2018-10-06T13:45:05.217Z,7.57
2018-10-06T13:47:34.765Z,10.33
2018-10-06T13:50:04.350Z,7.63
2018-10-06T13:52:33.874Z,6.00
2018-10-06T13:55:03.328Z,7.23
2018-10-06T13:57:33.056Z,6.97
2018-10-06T14:00:02.844Z,7.70
2018-10-06T14:02:32.152Z,9.50
2018-10-06T14:05:01.745Z,7.67
2018-10-06T14:07:31.212Z,10.03
2018-10-06T14:10:00.890Z,8.20
2018-10-06T14:12:30.404Z,8.90
2018-10-06T14:15:01.060Z,7.70
2018-10-06T14:17:30.867Z,8.60
2018-10-06T14:20:00.609Z,7.60
2018-10-06T14:22:30.429Z,8.20
2018-10-06T14:25:00.643Z,6.33
2018-10-06T14:27:30.076Z,4.37
2018-10-06T14:29:59.950Z,6.83
2018-10-06T14:32:29.646Z,7.10
2018-10-06T14:35:00.495Z,7.13
2018-10-06T14:37:30.617Z,7.43
2018-10-06T14:40:00.417Z,7.70
2018-10-06T14:42:29.830Z,8.43
2018-10-06T14:45:00.000Z,8.73
2018-10-06T14:47:29.754Z,8.03
2018-10-06T14:49:59.363Z,7.53
2018-10-06T14:52:28.852Z,9.30
2018-10-06T14:54:58.474Z,7.97
2018-10-06T14:57:27.917Z,6.87
2018-10-06T14:59:57.498Z,7.17
2018-10-06T15:02:26.974Z,7.87
2018-10-06T15:04:56.399Z,6.80
2018-10-06T15:07:25.878Z,9.47
2018-10-06T15:09:55.964Z,6.50
2018-10-06T15:12:25.546Z,6.60
2018-10-06T15:15:01.002Z,5.50
2018-10-06T15:17:30.647Z,4.80
2018-10-06T15:20:00.313Z,5.93
2018-10-06T15:22:29.844Z,3.87
2018-10-06T15:24:59.582Z,3.80
2018-10-06T15:27:29.250Z,4.63
2018-10-06T15:29:59.001Z,3.53
2018-10-06T15:32:28.663Z,4.83
2018-10-06T15:34:58.729Z,3.63
2018-10-06T15:37:28.261Z,4.10
2018-10-06T15:39:59.104Z,4.47
2018-10-06T15:42:28.452Z,3.90
2018-10-06T15:44:58.238Z,3.70
2018-10-06T15:47:27.890Z,2.67
2018-10-06T15:49:57.462Z,3.60
2018-10-06T15:52:31.795Z,3.40
2018-10-06T15:55:01.515Z,3.63
2018-10-06T15:57:30.974Z,3.00
2018-10-06T16:00:00.909Z,3.67
2018-10-06T16:02:30.362Z,4.13
2018-10-06T16:12:01.983Z,4.90
2018-10-06T16:14:32.657Z,3.60
2018-10-06T16:17:02.438Z,4.57
2018-10-06T16:19:32.004Z,4.37
2018-10-06T16:22:02.613Z,4.20
2018-10-06T16:24:32.340Z,5.30
2018-10-06T16:27:02.381Z,4.00
2018-10-06T16:29:33.277Z,5.47
2018-10-06T16:32:02.735Z,5.17
2018-10-06T16:34:33.382Z,5.10
2018-10-06T16:37:02.817Z,5.27
2018-10-06T16:39:42.837Z,5.23
2018-10-06T16:42:12.361Z,6.10
2018-10-06T16:44:43.230Z,7.03
2018-10-06T16:47:12.701Z,6.50
2018-10-06T16:49:42.783Z,5.37
2018-10-06T16:52:12.248Z,6.27
2018-10-06T16:54:41.833Z,6.60
2018-10-06T16:57:20.454Z,5.80
2018-10-06T17:02:25.246Z,5.93
2018-10-06T17:04:54.770Z,5.90
2018-10-06T17:07:24.299Z,7.13
2018-10-06T17:09:53.879Z,8.73
2018-10-06T17:12:23.505Z,9.10
2018-10-06T17:14:55.317Z,8.60
2018-10-06T17:17:24.786Z,10.67
2018-10-06T17:19:54.138Z,10.50
2018-10-06T17:22:23.989Z,9.97
2018-10-06T17:24:53.551Z,10.07
2018-10-06T17:27:24.158Z,9.73
2018-10-06T17:29:54.892Z,10.83
2018-10-06T17:32:29.052Z,10.80
2018-10-06T17:34:59.040Z,6.97
2018-10-06T17:37:29.270Z,10.93
2018-10-06T17:39:58.999Z,14.17
2018-10-06T17:42:30.510Z,12.57
2018-10-06T17:45:00.599Z,9.07
2018-10-06T17:47:30.923Z,12.93
2018-10-06T17:50:00.860Z,10.27
2018-10-06T17:52:32.603Z,15.30
2018-10-06T17:55:03.974Z,12.33
2018-10-06T18:04:48.663Z,9.90
2018-10-06T18:07:26.369Z,12.17
2018-10-06T18:13:14.471Z,14.87
2018-10-06T18:18:53.481Z,16.40
2018-10-06T18:21:23.243Z,13.20
2018-10-06T18:23:56.879Z,14.57
2018-10-06T18:26:29.474Z,98.43
2018-10-06T18:28:59.409Z,629.67
2018-10-06T18:31:29.058Z,264.87
2018-10-06T18:33:58.606Z,902.50
2018-10-06T18:36:28.344Z,952.70
2018-10-06T18:39:49.661Z,263.67
2018-10-06T18:43:22.876Z,15.00
2018-10-06T18:45:55.019Z,15.20
2018-10-06T18:48:24.631Z,46.77
2018-10-06T18:50:55.454Z,431.00
2018-10-06T18:53:25.032Z,29.10
2018-10-06T18:55:54.423Z,17.53
2018-10-06T18:58:27.179Z,12.77
2018-10-06T19:00:56.613Z,18.13
2018-10-06T19:03:26.082Z,29.57
2018-10-06T19:05:55.648Z,133.37
2018-10-06T19:08:24.993Z,87.93
2018-10-06T19:10:54.358Z,971.13
2018-10-06T19:13:23.737Z,1212.07
2018-10-06T19:15:53.078Z,963.50
2018-10-06T19:18:22.303Z,1999.90
2018-10-06T19:21:04.307Z,1450.27
2018-10-06T19:23:33.887Z,1114.10
2018-10-06T19:26:03.359Z,327.10
2018-10-06T19:28:34.168Z,709.13
2018-10-06T19:31:03.552Z,444.40
2018-10-06T19:34:17.221Z,1006.10
2018-10-06T19:36:46.787Z,1425.27
2018-10-06T19:39:16.348Z,1311.73
2018-10-06T19:41:45.693Z,1406.70
2018-10-06T19:44:15.118Z,586.93
2018-10-06T19:46:44.595Z,1530.23
2018-10-06T19:49:14.186Z,1205.30
2018-10-06T19:51:44.077Z,30.57
2018-10-06T19:54:14.083Z,24.00
2018-10-06T19:57:23.047Z,17.73
2018-10-06T20:00:10.513Z,19.27
2018-10-06T20:02:40.225Z,11.70
2018-10-06T20:05:10.306Z,12.03
2018-10-06T20:08:25.450Z,13.30
2018-10-06T20:14:12.418Z,14.53
2018-10-06T20:16:41.822Z,15.87
2018-10-06T20:19:17.955Z,18.00
2018-10-06T20:21:54.303Z,13.10
2018-10-06T20:24:24.119Z,16.43
2018-10-06T20:29:58.049Z,10.33
2018-10-06T20:32:27.781Z,15.73
2018-10-06T20:34:58.172Z,16.43
2018-10-06T20:37:27.898Z,15.20
2018-10-06T20:40:01.867Z,19.97
2018-10-06T20:45:33.806Z,13.23
2018-10-06T20:48:03.167Z,18.07
2018-10-06T20:56:32.836Z,16.30
2018-10-06T20:59:02.444Z,10.57
2018-10-06T21:01:32.158Z,19.60
2018-10-06T21:07:05.266Z,21.00
2018-10-06T21:09:34.783Z,99.40
2018-10-06T21:12:04.576Z,244.23
2018-10-06T21:14:34.412Z,91.03
2018-10-06T21:17:04.022Z,111.43
2018-10-06T21:19:33.619Z,24.60
2018-10-06T21:25:00.980Z,36.63
2018-10-06T21:27:30.574Z,222.33
2018-10-06T21:30:03.425Z,676.37
2018-10-06T21:32:32.829Z,167.57
2018-10-06T21:35:02.765Z,618.73
2018-10-06T21:37:32.514Z,608.27
2018-10-06T21:40:02.459Z,222.77
2018-10-06T21:42:34.235Z,303.57
2018-10-06T21:45:05.729Z,27.53
2018-10-06T21:47:36.254Z,49.23
2018-10-06T21:50:07.016Z,19.23
2018-10-06T21:55:47.019Z,15.40
2018-10-06T21:58:20.168Z,20.50
2018-10-06T22:01:22.146Z,14.97
2018-10-06T22:03:51.897Z,19.77
2018-10-06T22:13:31.151Z,31.93
2018-10-06T22:16:02.875Z,29.23
2018-10-06T22:18:32.462Z,15.83
2018-10-06T22:21:02.195Z,31.77
2018-10-06T22:23:33.131Z,31.60
2018-10-06T22:26:05.075Z,29.97
2018-10-06T22:28:37.241Z,38.13
2018-10-06T22:31:07.635Z,118.73
2018-10-06T22:33:39.094Z,49.60
2018-10-06T22:36:09.776Z,124.17
2018-10-06T22:38:41.073Z,88.33
2018-10-06T22:41:11.699Z,79.13
2018-10-06T22:43:42.187Z,36.13
2018-10-06T22:46:13.906Z,39.73
2018-10-06T22:49:07.348Z,33.60
2018-10-06T22:51:39.522Z,34.97
2018-10-06T22:54:10.834Z,18.23
2018-10-06T22:56:42.795Z,26.53
2018-10-06T22:59:13.857Z,16.80
2018-10-06T23:01:46.024Z,24.50
2018-10-06T23:04:18.529Z,19.60
2018-10-06T23:06:49.380Z,23.20
2018-10-06T23:09:19.878Z,24.20
2018-10-06T23:11:50.432Z,22.63
2018-10-06T23:14:22.353Z,23.57
2018-10-06T23:16:54.522Z,25.30
2018-10-06T23:19:27.767Z,16.67
2018-10-06T23:22:01.278Z,20.20
2018-10-06T23:24:33.957Z,9.47
2018-10-06T23:27:06.663Z,23.57
2018-10-06T23:29:37.275Z,23.00
2018-10-06T23:32:10.222Z,12.10
2018-10-06T23:34:41.004Z,19.27
2018-10-06T23:37:13.413Z,12.57
2018-10-06T23:39:45.159Z,17.90
2018-10-06T23:42:15.904Z,21.93
2018-10-06T23:44:50.431Z,20.37
2018-10-06T23:47:21.069Z,17.83
2018-10-06T23:50:03.745Z,13.83
2018-10-06T23:52:35.540Z,20.60
2018-10-06T23:55:06.384Z,19.50
2018-10-06T23:57:39.734Z,17.97
